This is the latest recevied weather packets stored in our database for station/object WX6YYZ. If no packets are shown the sender has not sent any weather packets the latest 10 day(s).
| Time | Temp. | Humidity | Pressure | Rain* | Wind** | Luminosity | Snow |
|---|---|---|---|---|---|---|---|
| 1777709265 | 14.44° C | 89% | 1013.9 hPa | 0 mm | - | - | - |
| 1777708663 | 14.44° C | 88% | 1014.2 hPa | 0 mm | - | - | - |
| 1777708362 | 14.44° C | 88% | 1014.2 hPa | 0 mm | - | - | - |
| 1777706518 | 15° C | 88% | 1014.2 hPa | 0 mm | - | - | - |
| 1777703777 | 15° C | 87% | 1014.2 hPa | 0 mm | - | - | - |
| 1777703476 | 15° C | 86% | 1014.2 hPa | 0 mm | - | - | - |
| 1777703175 | 15° C | 86% | 1014.2 hPa | 0 mm | - | - | - |
| 1777702573 | 15.56° C | 86% | 1014.2 hPa | 0 mm | - | - | - |
| 1777698360 | 16.11° C | 82% | 1014.2 hPa | 0 mm | - | - | - |
| 1777697758 | 16.11° C | 81% | 1014.2 hPa | 0 mm | - | - | - |
| 1777697457 | 16.11° C | 81% | 1014.2 hPa | 0 mm | - | - | - |
| 1777696555 | 16.67° C | 80% | 1013.9 hPa | 0 mm | - | - | - |
| 1777696254 | 16.67° C | 79% | 1013.9 hPa | 0 mm | - | - | - |
| 1777695922 | 16.67° C | 79% | 1013.5 hPa | 0 mm | - | - | - |
| 1777695622 | 16.67° C | 79% | 1013.5 hPa | 0 mm | - | - | - |
| 1777694386 | 17.22° C | 77% | 1013.2 hPa | 0 mm | - | - | - |
| 1777693784 | 17.22° C | 76% | 1013.2 hPa | 0 mm | - | - | - |
| 1777690016 | 18.89° C | 71% | 1012.2 hPa | 0 mm | - | - | - |
| 1777689414 | 18.89° C | 70% | 1012.2 hPa | 0 mm | - | - | - |
| 1777687276 | 20.56° C | 64% | 1011.5 hPa | 0 mm | - | - | - |
| 1777686311 | 21.11° C | 62% | 1011.5 hPa | 0 mm | - | - | - |
| 1777686011 | 21.67° C | 62% | 1011.5 hPa | 0 mm | - | - | - |
| 1777684111 | 22.22° C | 59% | 1011.2 hPa | 0 mm | - | - | - |
| 1777682573 | 23.33° C | 57% | 1011.2 hPa | 0 mm | - | - | - |
| 1777680009 | 24.44° C | 53% | 1011.2 hPa | 0 mm | - | - | - |
* Rain latest hour (hover to see other rain measurements)
** Current wind speed in m/s (hover to see current wind gust speed)